createdAt,value
2023-01-28T00:00:23.333Z,88.98
2023-01-28T00:01:23.313Z,88.35
2023-01-28T00:02:23.322Z,88.98
2023-01-28T00:03:23.389Z,88.50
2023-01-28T00:04:23.294Z,88.56
2023-01-28T00:05:23.277Z,88.98
2023-01-28T00:06:23.271Z,88.77
2023-01-28T00:07:23.257Z,88.87
2023-01-28T00:08:23.248Z,89.18
2023-01-28T00:09:23.241Z,89.08
2023-01-28T00:10:23.233Z,89.02
2023-01-28T00:11:23.219Z,88.71
2023-01-28T00:12:23.210Z,89.43
2023-01-28T00:13:23.214Z,89.33
2023-01-28T00:14:23.213Z,88.92
2023-01-28T00:15:23.195Z,89.48
2023-01-28T00:16:23.241Z,89.54
2023-01-28T00:17:23.162Z,89.69
2023-01-28T00:18:23.155Z,89.69
2023-01-28T00:19:23.150Z,89.48
2023-01-28T00:20:23.139Z,89.64
2023-01-28T00:21:23.134Z,89.64
2023-01-28T00:22:23.118Z,89.85
2023-01-28T00:23:23.112Z,89.64
2023-01-28T00:24:23.175Z,89.69
2023-01-28T00:25:23.091Z,89.58
2023-01-28T00:26:23.099Z,89.58
2023-01-28T00:27:23.077Z,89.75
2023-01-28T00:28:23.064Z,90.26
2023-01-28T00:29:23.049Z,90.20
2023-01-28T00:30:23.058Z,89.89
2023-01-28T00:31:23.094Z,89.95
2023-01-28T00:32:23.025Z,89.69
2023-01-28T00:33:23.010Z,89.27
2023-01-28T00:34:23.002Z,89.23
2023-01-28T00:35:23.444Z,89.37
2023-01-28T00:36:22.983Z,89.37
2023-01-28T00:37:22.981Z,89.54
2023-01-28T00:38:22.966Z,89.33
2023-01-28T00:39:22.965Z,89.79
2023-01-28T00:40:22.944Z,90.06
2023-01-28T00:41:22.934Z,89.79
2023-01-28T00:42:22.930Z,89.27
2023-01-28T00:43:22.931Z,89.69
2023-01-28T00:44:22.910Z,89.83
2023-01-28T00:45:22.899Z,89.79
2023-01-28T00:46:23.038Z,90.25
2023-01-28T00:47:22.877Z,90.45
2023-01-28T00:48:22.870Z,90.56
2023-01-28T00:49:22.858Z,90.66
2023-01-28T00:50:22.857Z,90.25
2023-01-28T00:51:22.844Z,90.04
2023-01-28T00:52:22.834Z,90.04
2023-01-28T00:53:22.824Z,90.25
2023-01-28T00:54:22.812Z,90.25
2023-01-28T00:55:22.799Z,90.04
2023-01-28T00:56:22.794Z,90.35
2023-01-28T00:57:22.781Z,90.77
2023-01-28T00:58:22.773Z,90.70
2023-01-28T00:59:22.764Z,90.81
2023-01-28T01:00:22.767Z,90.60
2023-01-28T01:01:22.783Z,90.81
2023-01-28T01:02:22.827Z,90.91
2023-01-28T01:03:22.724Z,91.71
2023-01-28T01:04:22.713Z,91.43
2023-01-28T01:05:22.710Z,91.53
2023-01-28T01:06:22.697Z,91.22
2023-01-28T01:07:22.683Z,90.81
2023-01-28T01:08:22.675Z,90.19
2023-01-28T01:09:22.669Z,90.91
2023-01-28T01:10:22.657Z,90.81
2023-01-28T01:11:22.652Z,90.81
2023-01-28T01:12:22.636Z,90.64
2023-01-28T01:13:22.634Z,90.75
2023-01-28T01:14:22.617Z,90.81
2023-01-28T01:15:22.606Z,91.12
2023-01-28T01:16:22.596Z,91.89
2023-01-28T01:17:22.581Z,91.43
2023-01-28T01:18:22.591Z,91.75
2023-01-28T01:19:22.569Z,91.53
2023-01-28T01:20:22.565Z,91.37
2023-01-28T01:21:22.546Z,91.27
2023-01-28T01:22:22.534Z,91.68
2023-01-28T01:23:22.525Z,91.53
2023-01-28T01:24:22.579Z,91.37
2023-01-28T01:25:22.507Z,91.58
2023-01-28T01:26:22.555Z,91.53
2023-01-28T01:27:22.495Z,91.64
2023-01-28T01:28:22.476Z,91.89
2023-01-28T01:29:22.464Z,91.64
2023-01-28T01:30:22.463Z,91.58
2023-01-28T01:31:22.788Z,90.22
2023-01-28T01:32:22.438Z,90.60
2023-01-28T01:33:22.424Z,90.95
2023-01-28T01:34:22.433Z,90.85
2023-01-28T01:35:22.407Z,90.64
2023-01-28T01:36:22.510Z,90.85
2023-01-28T01:37:22.387Z,90.33
2023-01-28T01:38:22.379Z,90.85
2023-01-28T01:39:22.367Z,90.33
2023-01-28T01:40:22.375Z,90.44
2023-01-28T01:41:22.352Z,90.12
2023-01-28T01:42:22.335Z,90.12
2023-01-28T01:43:22.326Z,90.12
2023-01-28T01:44:22.319Z,90.75
2023-01-28T01:45:22.309Z,90.95
2023-01-28T01:46:22.377Z,90.54
2023-01-28T01:47:22.284Z,90.95
2023-01-28T01:48:22.287Z,91.06
2023-01-28T01:49:22.285Z,90.33
2023-01-28T01:50:22.277Z,90.54
2023-01-28T01:51:22.251Z,90.95
2023-01-28T01:52:22.239Z,90.54
2023-01-28T01:53:22.229Z,90.85
2023-01-28T01:54:22.224Z,90.33
2023-01-28T01:55:22.207Z,90.95
2023-01-28T01:56:22.197Z,90.64
2023-01-28T01:57:22.194Z,90.64
2023-01-28T01:58:22.175Z,90.85
2023-01-28T01:59:22.169Z,90.54
2023-01-28T02:00:22.164Z,90.44
2023-01-28T02:01:22.148Z,90.01
2023-01-28T02:02:22.172Z,90.12
2023-01-28T02:03:22.188Z,90.54
2023-01-28T02:04:22.119Z,90.75
2023-01-28T02:05:22.106Z,91.16
2023-01-28T02:06:22.118Z,90.33
2023-01-28T02:07:22.148Z,91.16
2023-01-28T02:08:22.111Z,90.85
2023-01-28T02:09:22.066Z,90.75
2023-01-28T02:10:22.058Z,90.33
2023-01-28T02:11:22.044Z,90.95
2023-01-28T02:12:22.050Z,90.95
2023-01-28T02:13:22.027Z,90.44
2023-01-28T02:14:30.707Z,90.95
2023-01-28T02:15:22.005Z,90.95
2023-01-28T02:16:22.075Z,90.44
2023-01-28T02:17:21.989Z,90.75
2023-01-28T02:18:21.983Z,90.44
2023-01-28T02:19:21.963Z,90.95
2023-01-28T02:20:21.958Z,91.06
2023-01-28T02:21:21.949Z,91.37
2023-01-28T02:22:21.957Z,91.27
2023-01-28T02:23:21.934Z,91.47
2023-01-28T02:24:21.954Z,91.06
2023-01-28T02:25:21.907Z,91.27
2023-01-28T02:26:21.895Z,91.27
2023-01-28T02:27:21.884Z,91.16
2023-01-28T02:28:21.883Z,91.06
2023-01-28T02:29:21.862Z,91.41
2023-01-28T02:30:21.856Z,90.79
2023-01-28T02:31:22.078Z,91.00
2023-01-28T02:32:21.835Z,90.06
2023-01-28T02:33:21.825Z,90.26
2023-01-28T02:34:21.812Z,90.22
2023-01-28T02:35:21.803Z,90.01
2023-01-28T02:36:21.799Z,90.01
2023-01-28T02:37:21.791Z,89.81
2023-01-28T02:38:21.794Z,89.22
2023-01-28T02:39:21.771Z,89.54
2023-01-28T02:40:22.165Z,89.70
2023-01-28T02:41:21.742Z,89.85
2023-01-28T02:42:21.736Z,89.95
2023-01-28T02:43:21.721Z,89.39
2023-01-28T02:44:21.716Z,89.75
2023-01-28T02:45:21.702Z,89.50
2023-01-28T02:46:21.737Z,89.95
2023-01-28T02:47:21.688Z,89.64
2023-01-28T02:48:21.678Z,89.60
2023-01-28T02:49:21.668Z,89.50
2023-01-28T02:50:21.652Z,89.81
2023-01-28T02:51:21.642Z,89.50
2023-01-28T02:52:21.630Z,89.85
2023-01-28T02:53:21.620Z,89.81
2023-01-28T02:54:21.653Z,89.91
2023-01-28T02:55:21.602Z,89.91
2023-01-28T02:56:21.596Z,90.01
2023-01-28T02:57:21.582Z,90.12
2023-01-28T02:58:21.576Z,90.01
2023-01-28T02:59:21.573Z,90.12
2023-01-28T03:00:21.549Z,90.16
2023-01-28T03:01:21.602Z,90.12
2023-01-28T03:02:21.623Z,90.01
2023-01-28T03:03:21.520Z,90.33
2023-01-28T03:04:21.508Z,90.33
2023-01-28T03:05:21.597Z,90.75
2023-01-28T03:06:21.487Z,90.85
2023-01-28T03:07:21.477Z,90.64
2023-01-28T03:08:21.471Z,90.64
2023-01-28T03:09:21.464Z,90.22
2023-01-28T03:10:21.468Z,90.22
2023-01-28T03:11:21.439Z,90.22
2023-01-28T03:12:21.430Z,89.75
2023-01-28T03:13:21.417Z,90.01
2023-01-28T03:14:21.407Z,89.95
2023-01-28T03:15:21.405Z,90.06
2023-01-28T03:16:21.392Z,90.12
2023-01-28T03:17:21.379Z,89.81
2023-01-28T03:18:21.366Z,90.12
2023-01-28T03:19:21.358Z,90.16
2023-01-28T03:20:21.348Z,89.54
2023-01-28T03:21:21.342Z,90.12
2023-01-28T03:22:21.332Z,89.95
2023-01-28T03:23:21.314Z,89.81
2023-01-28T03:24:21.380Z,89.95
2023-01-28T03:25:21.294Z,90.26
2023-01-28T03:26:21.304Z,90.12
2023-01-28T03:27:21.281Z,90.22
2023-01-28T03:28:21.262Z,90.12
2023-01-28T03:29:21.272Z,90.26
2023-01-28T03:30:21.245Z,90.12
2023-01-28T03:31:21.231Z,90.26
2023-01-28T03:32:21.295Z,89.85
2023-01-28T03:33:21.214Z,90.06
2023-01-28T03:34:21.201Z,90.16
2023-01-28T03:35:21.192Z,91.00
2023-01-28T03:36:21.189Z,90.58
2023-01-28T03:37:21.172Z,90.37
2023-01-28T03:38:21.162Z,90.06
2023-01-28T03:39:21.148Z,90.06
2023-01-28T03:40:21.143Z,90.16
2023-01-28T03:41:21.130Z,89.85
2023-01-28T03:42:21.138Z,89.95
2023-01-28T03:43:21.119Z,90.26
2023-01-28T03:44:21.095Z,90.06
2023-01-28T03:45:21.091Z,90.16
2023-01-28T03:46:21.103Z,90.16
2023-01-28T03:47:21.067Z,90.47
2023-01-28T03:48:21.060Z,90.06
2023-01-28T03:49:21.046Z,90.06
2023-01-28T03:50:21.033Z,90.16
2023-01-28T03:51:21.037Z,90.06
2023-01-28T03:52:21.015Z,90.26
2023-01-28T03:53:21.011Z,91.00
2023-01-28T03:54:20.996Z,90.06
2023-01-28T03:55:20.987Z,90.37
2023-01-28T03:56:20.972Z,89.89
2023-01-28T03:57:20.961Z,90.31
2023-01-28T03:58:21.026Z,90.37
2023-01-28T03:59:20.950Z,90.41
2023-01-28T04:00:20.929Z,90.58
2023-01-28T04:01:21.016Z,90.20
2023-01-28T04:02:20.908Z,90.16
2023-01-28T04:03:20.901Z,90.41
2023-01-28T04:04:20.890Z,90.89
2023-01-28T04:05:20.887Z,90.06
2023-01-28T04:06:20.876Z,90.31
2023-01-28T04:07:20.867Z,89.78
2023-01-28T04:08:20.849Z,90.00
2023-01-28T04:09:20.838Z,89.68
2023-01-28T04:10:20.823Z,89.58
2023-01-28T04:11:20.819Z,89.89
2023-01-28T04:12:20.805Z,90.00
2023-01-28T04:13:20.791Z,90.10
2023-01-28T04:14:20.801Z,90.10
2023-01-28T04:15:20.773Z,89.89
2023-01-28T04:16:20.828Z,89.58
2023-01-28T04:17:20.777Z,89.68
2023-01-28T04:18:20.750Z,89.78
2023-01-28T04:19:20.732Z,89.89
2023-01-28T04:20:20.722Z,90.20
2023-01-28T04:21:20.709Z,89.89
2023-01-28T04:22:20.696Z,89.78
2023-01-28T04:23:20.696Z,89.58
2023-01-28T04:24:20.710Z,90.10
2023-01-28T04:25:20.667Z,90.10
2023-01-28T04:26:20.654Z,90.31
2023-01-28T04:27:20.647Z,90.00
2023-01-28T04:28:20.637Z,89.78
2023-01-28T04:29:20.625Z,89.78
2023-01-28T04:30:20.792Z,89.89
2023-01-28T04:31:20.613Z,89.47
2023-01-28T04:32:20.592Z,89.58
2023-01-28T04:33:20.583Z,89.58
2023-01-28T04:34:20.599Z,90.00
2023-01-28T04:35:20.562Z,89.16
2023-01-28T04:36:20.549Z,88.99
2023-01-28T04:37:20.544Z,89.16
2023-01-28T04:38:20.536Z,88.95
2023-01-28T04:39:20.524Z,89.26
2023-01-28T04:40:20.512Z,89.47
2023-01-28T04:41:20.502Z,89.58
2023-01-28T04:42:20.489Z,88.85
2023-01-28T04:43:20.479Z,88.75
2023-01-28T04:44:20.464Z,88.85
2023-01-28T04:45:20.461Z,89.37
2023-01-28T04:46:20.537Z,89.58
2023-01-28T04:47:20.437Z,89.37
2023-01-28T04:48:20.426Z,89.68
2023-01-28T04:49:20.419Z,89.89
2023-01-28T04:50:20.402Z,89.58
2023-01-28T04:51:20.394Z,88.85
2023-01-28T04:52:20.381Z,88.85
2023-01-28T04:53:20.373Z,89.26
2023-01-28T04:54:20.365Z,89.58
2023-01-28T04:55:20.350Z,90.20
2023-01-28T04:56:20.339Z,89.58
2023-01-28T04:57:20.329Z,89.68
2023-01-28T04:58:20.325Z,89.26
2023-01-28T04:59:20.317Z,89.37
2023-01-28T05:00:20.293Z,89.06
2023-01-28T05:01:20.288Z,89.26
2023-01-28T05:02:20.371Z,89.16
2023-01-28T05:03:20.268Z,89.37
2023-01-28T05:04:20.260Z,89.37
2023-01-28T05:05:20.249Z,88.64
2023-01-28T05:06:20.233Z,88.95
2023-01-28T05:07:20.229Z,88.43
2023-01-28T05:08:20.224Z,88.12
2023-01-28T05:09:20.233Z,88.43
2023-01-28T05:10:20.195Z,88.01
2023-01-28T05:11:20.190Z,87.81
2023-01-28T05:12:20.173Z,87.70
2023-01-28T05:13:20.176Z,88.32
2023-01-28T05:14:20.155Z,88.32
2023-01-28T05:15:20.156Z,88.64
2023-01-28T05:16:20.138Z,88.53
2023-01-28T05:17:20.173Z,88.75
2023-01-28T05:18:20.132Z,88.32
2023-01-28T05:19:20.103Z,88.43
2023-01-28T05:20:20.091Z,88.22
2023-01-28T05:21:20.083Z,87.91
2023-01-28T05:22:20.067Z,87.91
2023-01-28T05:23:20.058Z,87.81
2023-01-28T05:24:20.093Z,88.12
2023-01-28T05:25:20.058Z,89.06
2023-01-28T05:26:20.030Z,89.37
2023-01-28T05:27:20.018Z,88.95
2023-01-28T05:28:20.007Z,88.32
2023-01-28T05:29:20.005Z,88.12
2023-01-28T05:30:19.985Z,88.12
2023-01-28T05:31:19.986Z,88.01
2023-01-28T05:32:19.997Z,88.53
2023-01-28T05:33:19.970Z,88.75
2023-01-28T05:34:20.031Z,88.01
2023-01-28T05:35:19.945Z,88.12
2023-01-28T05:36:19.929Z,87.81
2023-01-28T05:37:19.923Z,87.60
2023-01-28T05:38:19.935Z,87.60
2023-01-28T05:39:19.899Z,88.12
2023-01-28T05:40:19.886Z,87.81
2023-01-28T05:41:19.873Z,87.91
2023-01-28T05:42:19.866Z,87.49
2023-01-28T05:43:19.853Z,87.91
2023-01-28T05:44:19.843Z,88.22
2023-01-28T05:45:19.947Z,87.60
2023-01-28T05:46:19.825Z,87.91
2023-01-28T05:47:19.837Z,87.28
2023-01-28T05:48:19.803Z,87.07
2023-01-28T05:49:19.793Z,87.28
2023-01-28T05:50:19.797Z,87.32
2023-01-28T05:51:19.777Z,87.28
2023-01-28T05:52:19.770Z,87.07
2023-01-28T05:53:19.753Z,86.87
2023-01-28T05:54:19.738Z,87.18
2023-01-28T05:55:20.832Z,86.18
2023-01-28T05:56:19.717Z,86.13
2023-01-28T05:57:19.709Z,86.87
2023-01-28T05:58:19.692Z,87.07
2023-01-28T05:59:19.690Z,87.22
2023-01-28T06:00:19.718Z,87.12
2023-01-28T06:01:19.669Z,86.80
2023-01-28T06:02:19.697Z,87.18
2023-01-28T06:03:19.648Z,86.97
2023-01-28T06:04:19.635Z,86.87
2023-01-28T06:05:19.629Z,87.07
2023-01-28T06:06:19.636Z,86.55
2023-01-28T06:07:19.607Z,86.13
2023-01-28T06:08:19.593Z,86.07
2023-01-28T06:09:19.591Z,85.44
2023-01-28T06:10:19.575Z,85.20
2023-01-28T06:11:19.989Z,85.55
2023-01-28T06:12:19.555Z,85.55
2023-01-28T06:13:19.547Z,85.30
2023-01-28T06:14:19.545Z,85.24
2023-01-28T06:15:19.523Z,85.44
2023-01-28T06:16:19.515Z,85.24
2023-01-28T06:17:19.514Z,85.44
2023-01-28T06:18:19.490Z,85.44
2023-01-28T06:19:19.482Z,85.24
2023-01-28T06:20:19.480Z,83.88
2023-01-28T06:21:19.466Z,84.50
2023-01-28T06:22:19.471Z,84.19
2023-01-28T06:23:19.442Z,84.09
2023-01-28T06:24:19.545Z,84.75
2023-01-28T06:25:19.426Z,83.71
2023-01-28T06:26:19.410Z,84.50
2023-01-28T06:27:19.407Z,84.09
2023-01-28T06:28:19.390Z,83.88
2023-01-28T06:29:19.381Z,83.88
2023-01-28T06:30:19.366Z,83.57
2023-01-28T06:31:19.365Z,83.36
2023-01-28T06:32:19.379Z,83.67
2023-01-28T06:33:19.340Z,83.88
2023-01-28T06:34:19.325Z,83.47
2023-01-28T06:35:19.318Z,84.19
2023-01-28T06:36:19.310Z,84.61
2023-01-28T06:37:19.298Z,85.24
2023-01-28T06:38:19.303Z,84.30
2023-01-28T06:39:19.279Z,84.09
2023-01-28T06:40:19.267Z,84.30
2023-01-28T06:41:19.261Z,83.47
2023-01-28T06:42:19.245Z,82.53
2023-01-28T06:43:19.237Z,83.57
2023-01-28T06:44:19.230Z,84.40
2023-01-28T06:45:19.417Z,83.67
2023-01-28T06:46:19.248Z,84.09
2023-01-28T06:47:19.193Z,83.92
2023-01-28T06:48:19.182Z,83.40
2023-01-28T06:49:19.181Z,83.18
2023-01-28T06:50:19.160Z,83.92
2023-01-28T06:51:19.154Z,83.40
2023-01-28T06:52:19.142Z,84.02
2023-01-28T06:53:19.144Z,84.12
2023-01-28T06:54:19.142Z,83.92
2023-01-28T06:55:19.111Z,83.71
2023-01-28T06:56:19.097Z,84.61
2023-01-28T06:57:19.089Z,85.13
2023-01-28T06:58:19.078Z,84.19
2023-01-28T06:59:19.087Z,83.78
2023-01-28T07:00:19.924Z,82.84
2023-01-28T07:01:19.063Z,83.25
2023-01-28T07:02:19.041Z,83.36
2023-01-28T07:03:19.127Z,84.09
2023-01-28T07:04:19.022Z,84.61
2023-01-28T07:05:19.028Z,84.82
2023-01-28T07:06:18.998Z,84.82
2023-01-28T07:07:18.989Z,85.13
2023-01-28T07:08:18.980Z,84.61
2023-01-28T07:09:18.966Z,85.55
2023-01-28T07:10:18.973Z,86.07
2023-01-28T07:11:18.955Z,85.44
2023-01-28T07:12:18.936Z,85.03
2023-01-28T07:13:18.932Z,84.09
2023-01-28T07:14:18.916Z,83.67
2023-01-28T07:15:18.916Z,82.73
2023-01-28T07:16:18.893Z,82.73
2023-01-28T07:17:18.940Z,83.47
2023-01-28T07:18:18.876Z,83.67
2023-01-28T07:19:18.866Z,83.53
2023-01-28T07:20:19.085Z,84.09
2023-01-28T07:21:18.843Z,83.57
2023-01-28T07:22:18.878Z,83.36
2023-01-28T07:23:18.823Z,83.25
2023-01-28T07:24:18.942Z,83.57
2023-01-28T07:25:18.806Z,83.36
2023-01-28T07:26:18.846Z,83.67
2023-01-28T07:27:18.790Z,83.36
2023-01-28T07:28:18.773Z,84.09
2023-01-28T07:29:18.762Z,84.09
2023-01-28T07:30:18.750Z,84.19
2023-01-28T07:31:18.882Z,83.78
2023-01-28T07:32:18.733Z,84.40
2023-01-28T07:33:18.732Z,84.50
2023-01-28T07:34:18.712Z,84.50
2023-01-28T07:35:18.702Z,84.72
2023-01-28T07:36:18.694Z,84.36
2023-01-28T07:37:18.684Z,84.72
2023-01-28T07:38:18.692Z,84.36
2023-01-28T07:39:18.668Z,84.36
2023-01-28T07:40:18.649Z,85.10
2023-01-28T07:41:18.642Z,84.88
2023-01-28T07:42:18.644Z,84.67
2023-01-28T07:43:18.618Z,85.41
2023-01-28T07:44:18.612Z,85.51
2023-01-28T07:45:18.599Z,85.82
2023-01-28T07:46:18.594Z,85.93
2023-01-28T07:47:18.617Z,86.03
2023-01-28T07:48:18.576Z,84.67
2023-01-28T07:49:18.557Z,84.78
2023-01-28T07:50:18.751Z,84.99
2023-01-28T07:51:18.539Z,84.26
2023-01-28T07:52:18.530Z,83.22
2023-01-28T07:53:18.524Z,82.59
2023-01-28T07:54:18.512Z,82.94
2023-01-28T07:55:18.499Z,82.73
2023-01-28T07:56:18.489Z,82.59
2023-01-28T07:57:18.479Z,82.59
2023-01-28T07:58:18.487Z,82.94
2023-01-28T07:59:18.460Z,82.42
2023-01-28T08:00:18.461Z,82.73
2023-01-28T08:01:18.495Z,82.73
2023-01-28T08:02:18.458Z,82.70
2023-01-28T08:03:18.433Z,82.53
2023-01-28T08:04:18.469Z,82.42
2023-01-28T08:05:18.488Z,82.94
2023-01-28T08:06:18.390Z,82.94
2023-01-28T08:07:18.388Z,83.04
2023-01-28T08:08:18.376Z,83.57
2023-01-28T08:09:18.364Z,84.16
2023-01-28T08:10:18.378Z,84.36
2023-01-28T08:11:18.336Z,84.26
2023-01-28T08:12:18.335Z,84.67
2023-01-28T08:13:18.320Z,85.10
2023-01-28T08:14:18.333Z,84.99
2023-01-28T08:15:18.297Z,84.16
2023-01-28T08:16:18.342Z,83.74
2023-01-28T08:17:18.278Z,83.42
2023-01-28T08:18:18.286Z,82.80
2023-01-28T08:19:18.258Z,82.70
2023-01-28T08:20:18.434Z,82.17
2023-01-28T08:21:18.239Z,82.90
2023-01-28T08:22:18.228Z,83.63
2023-01-28T08:23:18.218Z,84.47
2023-01-28T08:24:18.340Z,83.53
2023-01-28T08:25:18.197Z,82.70
2023-01-28T08:26:18.191Z,82.55
2023-01-28T08:27:18.181Z,83.32
2023-01-28T08:28:18.173Z,81.72
2023-01-28T08:29:18.157Z,81.82
2023-01-28T08:30:18.301Z,82.48
2023-01-28T08:31:18.299Z,82.38
2023-01-28T08:32:18.134Z,83.63
2023-01-28T08:33:18.123Z,82.90
2023-01-28T08:34:18.119Z,82.70
2023-01-28T08:35:18.100Z,82.48
2023-01-28T08:36:18.091Z,82.90
2023-01-28T08:37:18.080Z,82.28
2023-01-28T08:38:18.077Z,81.76
2023-01-28T08:39:18.061Z,82.70
2023-01-28T08:40:18.351Z,83.01
2023-01-28T08:41:18.041Z,83.32
2023-01-28T08:42:18.032Z,83.22
2023-01-28T08:43:18.026Z,83.42
2023-01-28T08:44:18.015Z,83.78
2023-01-28T08:45:18.017Z,83.84
2023-01-28T08:46:18.055Z,83.95
2023-01-28T08:47:17.977Z,83.59
2023-01-28T08:48:17.978Z,82.55
2023-01-28T08:49:17.961Z,82.90
2023-01-28T08:50:17.956Z,83.18
2023-01-28T08:51:17.943Z,83.28
2023-01-28T08:52:17.933Z,83.28
2023-01-28T08:53:17.924Z,82.87
2023-01-28T08:54:17.911Z,82.14
2023-01-28T08:55:17.901Z,82.45
2023-01-28T08:56:17.896Z,82.55
2023-01-28T08:57:17.880Z,82.97
2023-01-28T08:58:17.872Z,83.28
2023-01-28T08:59:17.863Z,82.14
2023-01-28T09:00:18.004Z,81.30
2023-01-28T09:01:17.926Z,82.31
2023-01-28T09:02:30.624Z,82.34
2023-01-28T09:03:17.822Z,82.87
2023-01-28T09:04:17.816Z,82.72
2023-01-28T09:05:17.802Z,83.49
2023-01-28T09:06:17.798Z,82.62
2023-01-28T09:07:17.790Z,83.45
2023-01-28T09:08:17.781Z,82.20
2023-01-28T09:09:17.764Z,81.41
2023-01-28T09:10:18.283Z,80.68
2023-01-28T09:11:17.746Z,80.99
2023-01-28T09:12:17.737Z,80.51
2023-01-28T09:13:17.737Z,81.13
2023-01-28T09:14:17.731Z,81.65
2023-01-28T09:15:17.711Z,81.79
2023-01-28T09:16:17.782Z,81.90
2023-01-28T09:17:17.687Z,81.59
2023-01-28T09:18:17.700Z,81.27
2023-01-28T09:19:17.667Z,81.38
2023-01-28T09:20:18.066Z,81.79
2023-01-28T09:21:17.650Z,81.38
2023-01-28T09:22:17.642Z,81.90
2023-01-28T09:23:17.626Z,82.31
2023-01-28T09:24:17.678Z,82.87
2023-01-28T09:25:17.617Z,82.21
2023-01-28T09:26:17.604Z,82.21
2023-01-28T09:27:17.610Z,82.56
2023-01-28T09:28:17.580Z,81.93
2023-01-28T09:29:17.566Z,81.93
2023-01-28T09:30:18.071Z,81.31
2023-01-28T09:31:17.646Z,81.93
2023-01-28T09:32:17.535Z,82.46
2023-01-28T09:33:17.524Z,83.08
2023-01-28T09:34:17.537Z,82.98
2023-01-28T09:35:17.504Z,82.56
2023-01-28T09:36:17.496Z,82.42
2023-01-28T09:37:17.482Z,81.73
2023-01-28T09:38:17.480Z,82.14
2023-01-28T09:39:17.465Z,83.18
2023-01-28T09:40:17.678Z,82.35
2023-01-28T09:41:17.446Z,81.73
2023-01-28T09:42:17.434Z,81.93
2023-01-28T09:43:17.418Z,82.35
2023-01-28T09:44:17.415Z,81.21
2023-01-28T09:45:17.439Z,81.10
2023-01-28T09:46:17.501Z,81.93
2023-01-28T09:47:17.398Z,82.42
2023-01-28T09:48:17.371Z,82.25
2023-01-28T09:49:17.359Z,81.38
2023-01-28T09:50:17.829Z,81.27
2023-01-28T09:51:17.686Z,82.73
2023-01-28T09:52:17.328Z,81.79
2023-01-28T09:53:17.320Z,81.48
2023-01-28T09:54:17.310Z,82.53
2023-01-28T09:55:17.294Z,82.84
2023-01-28T09:56:17.288Z,82.94
2023-01-28T09:57:17.280Z,83.15
2023-01-28T09:58:17.268Z,81.76
2023-01-28T09:59:17.254Z,81.86
2023-01-28T10:00:17.710Z,80.92
2023-01-28T10:01:17.287Z,81.45
2023-01-28T10:02:17.238Z,81.86
2023-01-28T10:03:17.214Z,81.69
2023-01-28T10:04:17.207Z,81.79
2023-01-28T10:05:17.191Z,82.17
2023-01-28T10:06:17.223Z,82.38
2023-01-28T10:07:17.172Z,81.38
2023-01-28T10:08:17.161Z,81.59
2023-01-28T10:09:17.155Z,81.79
2023-01-28T10:10:17.957Z,82.00
2023-01-28T10:11:17.135Z,81.90
2023-01-28T10:12:17.127Z,81.38
2023-01-28T10:13:17.115Z,81.79
2023-01-28T10:14:17.100Z,81.16
2023-01-28T10:15:17.097Z,80.85
2023-01-28T10:16:17.081Z,81.27
2023-01-28T10:17:17.100Z,80.23
2023-01-28T10:18:18.509Z,80.89
2023-01-28T10:19:17.234Z,80.99
2023-01-28T10:20:17.459Z,80.68
2023-01-28T10:21:17.181Z,79.95
2023-01-28T10:22:17.033Z,80.58
2023-01-28T10:23:17.011Z,79.95
2023-01-28T10:24:17.172Z,80.16
2023-01-28T10:25:16.986Z,81.16
2023-01-28T10:26:16.984Z,80.96
2023-01-28T10:27:16.971Z,80.02
2023-01-28T10:28:16.954Z,80.02
2023-01-28T10:29:16.943Z,79.91
2023-01-28T10:30:17.315Z,79.60
2023-01-28T10:31:17.059Z,80.79
2023-01-28T10:32:17.265Z,81.27
2023-01-28T10:33:16.903Z,82.10
2023-01-28T10:34:19.056Z,82.94
2023-01-28T10:35:16.889Z,83.88
2023-01-28T10:36:16.877Z,83.15
2023-01-28T10:37:16.868Z,82.63
2023-01-28T10:38:16.871Z,82.84
2023-01-28T10:39:16.841Z,82.00
2023-01-28T10:40:17.255Z,81.90
2023-01-28T10:41:16.817Z,82.21
2023-01-28T10:42:16.807Z,82.73
2023-01-28T10:43:16.996Z,80.44
2023-01-28T10:44:16.796Z,79.50
2023-01-28T10:45:16.781Z,79.50
2023-01-28T10:46:16.824Z,80.44
2023-01-28T10:47:16.764Z,80.44
2023-01-28T10:48:16.995Z,80.96
2023-01-28T10:49:16.736Z,80.75
2023-01-28T10:50:17.169Z,79.50
2023-01-28T10:51:16.714Z,79.91
2023-01-28T10:52:16.712Z,80.85
2023-01-28T10:53:17.096Z,80.85
2023-01-28T10:54:16.706Z,80.65
2023-01-28T10:55:16.676Z,81.27
2023-01-28T10:56:16.666Z,81.86
2023-01-28T10:57:16.659Z,80.09
2023-01-28T10:58:16.644Z,79.50
2023-01-28T10:59:16.632Z,79.57
2023-01-28T11:00:16.878Z,79.88
2023-01-28T11:01:16.709Z,80.09
2023-01-28T11:02:16.688Z,79.88
2023-01-28T11:03:16.599Z,79.84
2023-01-28T11:04:16.592Z,80.09
2023-01-28T11:05:16.584Z,78.94
2023-01-28T11:06:16.562Z,79.15
2023-01-28T11:07:16.550Z,79.57
2023-01-28T11:08:16.542Z,80.09
2023-01-28T11:09:16.533Z,79.46
2023-01-28T11:10:16.874Z,79.46
2023-01-28T11:11:16.512Z,80.09
2023-01-28T11:12:16.499Z,80.09
2023-01-28T11:13:16.487Z,80.71
2023-01-28T11:14:16.478Z,81.55
2023-01-28T11:15:16.784Z,79.39
2023-01-28T11:16:16.462Z,80.13
2023-01-28T11:17:16.509Z,80.19
2023-01-28T11:18:16.438Z,79.81
2023-01-28T11:19:16.429Z,80.23
2023-01-28T11:20:16.720Z,79.71
2023-01-28T11:21:16.408Z,79.91
2023-01-28T11:22:16.399Z,81.38
2023-01-28T11:23:16.386Z,81.16
2023-01-28T11:24:16.461Z,80.96
2023-01-28T11:25:16.364Z,80.85
2023-01-28T11:26:16.375Z,80.65
2023-01-28T11:27:16.357Z,80.82
2023-01-28T11:28:16.340Z,80.92
2023-01-28T11:29:16.327Z,81.76
2023-01-28T11:30:16.682Z,81.23
2023-01-28T11:31:16.392Z,81.23
2023-01-28T11:32:16.301Z,81.02
2023-01-28T11:33:16.292Z,80.96
2023-01-28T11:34:16.287Z,80.85
2023-01-28T11:35:16.282Z,81.59
2023-01-28T11:36:16.259Z,80.44
2023-01-28T11:37:16.309Z,79.60
2023-01-28T11:38:16.241Z,80.33
2023-01-28T11:39:16.222Z,81.48
2023-01-28T11:40:19.015Z,81.38
2023-01-28T11:41:16.200Z,80.44
2023-01-28T11:42:16.207Z,80.75
2023-01-28T11:43:16.179Z,81.06
2023-01-28T11:44:16.171Z,80.33
2023-01-28T11:45:16.188Z,80.75
2023-01-28T11:46:16.204Z,80.96
2023-01-28T11:47:16.138Z,82.00
2023-01-28T11:48:16.129Z,81.59
2023-01-28T11:49:16.117Z,81.69
2023-01-28T11:50:16.417Z,82.42
2023-01-28T11:51:16.099Z,83.47
2023-01-28T11:52:16.086Z,83.42
2023-01-28T11:53:17.072Z,84.05
2023-01-28T11:54:16.062Z,83.95
2023-01-28T11:55:16.047Z,81.34
2023-01-28T11:56:16.042Z,79.46
2023-01-28T11:57:16.033Z,80.19
2023-01-28T11:58:16.286Z,79.98
2023-01-28T11:59:16.009Z,81.13
2023-01-28T12:00:16.983Z,79.88
2023-01-28T12:01:15.989Z,79.57
2023-01-28T12:02:15.990Z,80.40
2023-01-28T12:03:15.966Z,80.92
2023-01-28T12:04:15.961Z,80.71
2023-01-28T12:05:15.956Z,81.86
2023-01-28T12:06:15.935Z,82.07
2023-01-28T12:07:15.926Z,81.96
2023-01-28T12:08:15.913Z,82.48
2023-01-28T12:09:15.915Z,81.76
2023-01-28T12:10:16.318Z,79.98
2023-01-28T12:11:15.886Z,79.25
2023-01-28T12:12:15.873Z,80.19
2023-01-28T12:13:15.865Z,80.65
2023-01-28T12:14:15.867Z,79.71
2023-01-28T12:15:15.841Z,79.08
2023-01-28T12:16:15.874Z,80.02
2023-01-28T12:17:15.824Z,79.91
2023-01-28T12:18:15.819Z,79.71
2023-01-28T12:19:15.809Z,80.23
2023-01-28T12:20:16.280Z,80.44
2023-01-28T12:21:15.790Z,80.75
2023-01-28T12:22:15.770Z,80.02
2023-01-28T12:23:15.760Z,79.50
2023-01-28T12:24:15.804Z,79.74
2023-01-28T12:25:15.739Z,80.44
2023-01-28T12:26:15.728Z,80.85
2023-01-28T12:27:15.714Z,80.13
2023-01-28T12:28:15.702Z,81.27
2023-01-28T12:29:15.700Z,80.65
2023-01-28T12:30:16.124Z,80.65
2023-01-28T12:31:15.838Z,80.54
2023-01-28T12:32:15.671Z,81.69
2023-01-28T12:33:17.510Z,82.59
2023-01-28T12:34:15.662Z,82.48
2023-01-28T12:35:15.679Z,82.38
2023-01-28T12:36:15.623Z,82.70
2023-01-28T12:37:15.619Z,81.13
2023-01-28T12:38:15.685Z,79.77
2023-01-28T12:39:15.597Z,79.98
2023-01-28T12:40:16.137Z,78.63
2023-01-28T12:41:15.593Z,78.63
2023-01-28T12:42:15.554Z,80.30
2023-01-28T12:43:15.551Z,79.98
2023-01-28T12:44:15.536Z,80.51
2023-01-28T12:45:15.528Z,80.19
2023-01-28T12:46:15.531Z,80.71
2023-01-28T12:47:15.524Z,80.05
2023-01-28T12:48:15.511Z,80.19
2023-01-28T12:49:15.490Z,80.16
2023-01-28T12:50:15.990Z,80.57
2023-01-28T12:51:15.468Z,81.82
2023-01-28T12:52:15.456Z,80.78